03:04
Airports
Links
Donate
Help keep this website running!
PayPal
Bitcoin
METAR
LIBR 180250Z 13008KT 9999 FEW010 10/08 Q1018
Current Weather Conditions at LIBR
VFR 02:50:00 18-02-18
Altimeter:30.06 hg
Temp:10.0°c 50°f
Dew point:8.0°c 46°f
Wind:8 knots, 9.2 mph, 4 m/s, from 130°
Visibility:6.21 statute miles
1000(FEW) A few
Past METAR reports
VFR 02:20:00 18-02-18
Altimeter:30.06 hg
Temp:10.0°c 50°f
Dew point:8.0°c 46°f
Wind:6 knots, 6.9 mph, 3 m/s, from 130°
Visibility:6.21 statute miles
(CAVOK)
LIBR 180220Z 13006KT CAVOK 10/08 Q1018
VFR 01:50:00 18-02-18
Altimeter:30.06 hg
Temp:10.0°c 50°f
Dew point:8.0°c 46°f
Wind:4 knots, 4.6 mph, 2 m/s, from 130°
Visibility:6.21 statute miles
2000(FEW) A few
LIBR 180150Z 13004KT 100V160 9999 FEW020 10/08 Q1018
VFR 01:20:00 18-02-18
Altimeter:30.09 hg
Temp:9.0°c 48°f
Dew point:7.0°c 45°f
Wind:5 knots, 5.8 mph, 3 m/s, from 150°
Visibility:6.21 statute miles
2000(FEW) A few
LIBR 180120Z 15005KT 9999 FEW020 09/07 Q1019
VFR 00:50:00 18-02-18
Altimeter:30.09 hg
Temp:9.0°c 48°f
Dew point:7.0°c 45°f
Wind:6 knots, 6.9 mph, 3 m/s, from 150°
Visibility:6.21 statute miles
(CAVOK)
LIBR 180050Z 15006KT CAVOK 09/07 Q1019
VFR 00:20:00 18-02-18
Altimeter:30.09 hg
Temp:9.0°c 48°f
Dew point:7.0°c 45°f
Wind:5 knots, 5.8 mph, 3 m/s, from 150°
Visibility:6.21 statute miles
(CAVOK)
LIBR 180020Z 15005KT CAVOK 09/07 Q1019
VFR 23:50:00 17-02-18
Altimeter:30.09 hg
Temp:9.0°c 48°f
Dew point:7.0°c 45°f
Wind:6 knots, 6.9 mph, 3 m/s, from 150°
Visibility:6.21 statute miles
(CAVOK)
LIBR 172350Z 15006KT CAVOK 09/07 Q1019
TAF
TAF LIBR 172300Z 1800/1824 18012KT 9999 SCT030 TEMPO 1815/1824 RA
Forecast at LIBR
00:00 18-02-18 to 00:00 19-02-18
Wind:12 Knots from 180°
Visibility:6.21 statute miles
3000SCT Scattered
TEMPO 15:00 18-02-18 to 00:00 19-02-18
RA